Time;durP1;ratioP1;P1;durP2;ratioP2;P2;SDS_P1;SDS_P2;PMS_P1;PMS_P2;Temp;Humidity;BMP_temperature;BMP_pressure;BME280_temperature;BME280_humidity;BME280_pressure;Samples;Min_cycle;Max_cycle;Signal;HPM_P1;HPM_P2
2023/07/22 00:01:06;;;;;;;3.17;1.38;;;13.30;99.90;;;;;;5035588;28;20080;-74
2023/07/22 00:03:33;;;;;;;3.80;1.40;;;13.30;99.90;;;;;;5032026;28;20053;-74
2023/07/22 00:06:12;;;;;;;3.50;1.10;;;13.30;99.90;;;;;;5042736;28;20056;-74
2023/07/22 00:08:41;;;;;;;2.78;1.42;;;13.30;99.90;;;;;;5051931;28;20405;-75
2023/07/22 00:11:07;;;;;;;3.35;1.48;;;13.30;99.90;;;;;;5053154;28;20500;-74
2023/07/22 00:13:34;;;;;;;3.95;1.35;;;13.30;99.90;;;;;;5050796;28;20060;-75
2023/07/22 00:16:00;;;;;;;3.50;1.50;;;13.30;99.90;;;;;;5051526;28;20052;-74
2023/07/22 00:18:27;;;;;;;4.00;1.48;;;13.30;99.90;;;;;;5051210;28;20059;-73
2023/07/22 00:20:54;;;;;;;3.40;1.20;;;13.30;99.90;;;;;;5052086;28;20080;-74
2023/07/22 00:23:19;;;;;;;4.45;1.65;;;13.20;99.90;;;;;;5051550;28;20041;-74
2023/07/22 00:25:49;;;;;;;3.95;1.48;;;13.20;99.90;;;;;;5052050;28;20408;-74
2023/07/22 00:28:18;;;;;;;3.65;1.40;;;13.20;99.90;;;;;;5051770;28;20041;-74
2023/07/22 00:30:44;;;;;;;3.97;1.40;;;13.10;99.90;;;;;;5052359;28;20420;-74
2023/07/22 00:33:13;;;;;;;2.65;1.27;;;13.10;99.90;;;;;;5051090;28;20037;-74
2023/07/22 00:35:39;;;;;;;3.50;1.60;;;13.10;99.90;;;;;;5052792;28;20049;-74
2023/07/22 00:38:05;;;;;;;2.95;1.40;;;13.00;99.90;;;;;;5052958;28;20496;-74
2023/07/22 00:40:35;;;;;;;3.67;1.48;;;12.90;99.90;;;;;;5050264;28;20064;-75
2023/07/22 00:43:01;;;;;;;3.15;1.40;;;13.30;99.90;;;;;;5051670;28;20049;-74
2023/07/22 00:45:26;;;;;;;2.97;1.38;;;12.90;99.90;;;;;;5051384;28;20044;-74
2023/07/22 00:47:52;;;;;;;4.47;1.85;;;12.80;99.90;;;;;;5050551;28;20492;-74
2023/07/22 00:50:18;;;;;;;7.80;1.85;;;12.80;99.90;;;;;;5052356;28;20048;-74
2023/07/22 00:52:44;;;;;;;2.90;1.48;;;12.70;99.90;;;;;;5051777;28;20493;-74
2023/07/22 00:55:13;;;;;;;3.20;1.70;;;12.70;99.90;;;;;;5051929;28;20438;-73
2023/07/22 00:57:39;;;;;;;4.40;1.83;;;12.70;99.90;;;;;;5051395;28;20048;-74
2023/07/22 01:00:06;;;;;;;4.32;1.80;;;12.60;99.90;;;;;;5051024;28;20041;-74
2023/07/22 01:02:32;;;;;;;4.53;1.52;;;12.60;99.90;;;;;;5039569;28;20405;-74
2023/07/22 01:04:58;;;;;;;5.03;1.88;;;12.60;99.90;;;;;;5032508;28;20072;-74
2023/07/22 01:07:24;;;;;;;3.20;1.65;;;12.60;99.90;;;;;;5031138;28;20083;-74
2023/07/22 01:09:56;;;;;;;3.83;1.55;;;12.50;99.90;;;;;;5046477;28;20060;-73
2023/07/22 01:12:22;;;;;;;4.95;1.70;;;12.40;99.90;;;;;;5052638;28;20476;-74
2023/07/22 01:14:48;;;;;;;2.88;1.60;;;12.40;99.90;;;;;;5051135;28;20063;-74
2023/07/22 01:17:14;;;;;;;5.25;1.85;;;12.30;99.90;;;;;;5052811;28;20128;-74
2023/07/22 01:19:43;;;;;;;6.53;1.70;;;12.30;99.90;;;;;;5052013;28;20045;-74
2023/07/22 01:22:10;;;;;;;4.07;1.80;;;12.30;99.90;;;;;;5050279;28;20122;-74
2023/07/22 01:24:39;;;;;;;3.65;1.92;;;12.20;99.90;;;;;;5050494;28;20504;-74
2023/07/22 01:27:10;;;;;;;4.40;1.90;;;12.10;99.90;;;;;;5052471;28;20045;-74
2023/07/22 01:29:38;;;;;;;3.63;2.20;;;12.10;99.90;;;;;;5050232;28;20480;-73
2023/07/22 01:32:05;;;;;;;4.30;1.90;;;12.10;99.90;;;;;;5051995;28;20033;-74
2023/07/22 01:34:40;;;;;;;4.72;2.10;;;12.00;99.90;;;;;;5052211;28;20053;-74
2023/07/22 01:37:07;;;;;;;5.10;2.30;;;12.00;99.90;;;;;;5050890;28;20037;-74
2023/07/22 01:39:32;;;;;;;4.60;2.10;;;12.00;99.90;;;;;;5051917;28;20091;-74
2023/07/22 01:41:58;;;;;;;4.32;2.13;;;11.90;99.90;;;;;;5051528;28;20467;-74
2023/07/22 01:44:24;;;;;;;4.78;2.30;;;11.80;99.90;;;;;;5050313;28;20052;-73
2023/07/22 01:46:50;;;;;;;5.45;2.47;;;11.90;99.90;;;;;;5051821;28;20052;-74
2023/07/22 01:49:16;;;;;;;5.53;2.22;;;11.80;99.90;;;;;;5052286;28;20041;-73
2023/07/22 01:51:42;;;;;;;3.95;2.20;;;11.70;99.90;;;;;;5049067;28;20053;-74
2023/07/22 01:54:11;;;;;;;5.70;2.63;;;11.70;99.90;;;;;;5052216;28;20044;-74
2023/07/22 01:56:38;;;;;;;4.60;2.47;;;11.70;99.90;;;;;;5051858;28;20059;-73
2023/07/22 01:59:05;;;;;;;5.45;2.90;;;11.70;99.90;;;;;;5050030;28;20049;-73
2023/07/22 02:01:32;;;;;;;4.47;2.70;;;11.60;99.90;;;;;;5050426;28;20113;-73
2023/07/22 02:03:57;;;;;;;4.95;2.60;;;11.60;99.90;;;;;;5049626;28;20056;-73
2023/07/22 02:06:27;;;;;;;5.63;2.45;;;11.60;99.90;;;;;;5054829;28;20564;-74
2023/07/22 02:08:53;;;;;;;5.88;2.58;;;11.60;99.90;;;;;;5054976;28;20504;-73
2023/07/22 02:11:19;;;;;;;4.70;2.55;;;11.60;99.90;;;;;;5053360;28;20049;-73
2023/07/22 02:13:47;;;;;;;4.70;2.30;;;11.60;99.90;;;;;;5054784;28;20064;-73
2023/07/22 02:16:13;;;;;;;5.53;2.40;;;11.50;99.90;;;;;;5055374;28;20052;-73
2023/07/22 02:18:39;;;;;;;5.22;2.47;;;11.50;99.90;;;;;;5053328;28;20045;-73
2023/07/22 02:21:05;;;;;;;6.15;2.78;;;11.50;99.90;;;;;;5055130;28;20098;-74
2023/07/22 02:23:30;;;;;;;4.93;2.65;;;11.40;99.90;;;;;;5055353;28;20045;-74
2023/07/22 02:25:56;;;;;;;4.10;2.40;;;11.40;99.90;;;;;;5052739;28;20059;-73
2023/07/22 02:28:23;;;;;;;;;;;11.30;99.90;;;;;;5055698;28;20533;-73
2023/07/22 02:30:51;;;;;;;6.07;2.65;;;11.30;99.90;;;;;;5054590;28;19921;-73
2023/07/22 02:33:21;;;;;;;5.97;2.67;;;11.30;99.90;;;;;;5053089;28;20059;-74
2023/07/22 02:35:48;;;;;;;4.25;2.50;;;11.20;99.90;;;;;;5054792;28;20056;-74
2023/07/22 02:38:16;;;;;;;5.53;2.40;;;11.20;99.90;;;;;;5054859;28;20102;-74
2023/07/22 02:40:42;;;;;;;4.97;2.53;;;11.20;99.90;;;;;;5053556;28;20087;-73
2023/07/22 02:43:11;;;;;;;5.60;2.50;;;11.10;99.90;;;;;;5053640;28;20500;-74
2023/07/22 02:45:37;;;;;;;4.75;2.67;;;11.10;99.90;;;;;;5054723;28;20048;-74
2023/07/22 02:48:03;;;;;;;5.68;2.50;;;11.10;99.90;;;;;;5052088;28;20041;-74
2023/07/22 02:50:32;;;;;;;;;;;11.10;99.90;;;;;;5055194;28;20048;-74
2023/07/22 02:52:57;;;;;;;5.50;2.60;;;11.20;99.90;;;;;;5053018;28;19920;-74
2023/07/22 02:55:23;;;;;;;;;;;11.20;99.90;;;;;;5053915;28;20052;-74
2023/07/22 02:57:49;;;;;;;4.28;2.60;;;11.20;99.90;;;;;;5053980;28;20324;-74
2023/07/22 03:00:23;;;;;;;4.82;2.78;;;11.20;99.90;;;;;;5052644;28;20075;-74
2023/07/22 03:02:53;;;;;;;5.68;2.53;;;11.30;99.90;;;;;;5043822;28;20056;-74
2023/07/22 03:05:19;;;;;;;4.72;2.53;;;11.30;99.90;;;;;;5033069;28;20051;-74
2023/07/22 03:07:48;;;;;;;5.68;2.90;;;11.30;99.90;;;;;;5032668;28;20139;-73
2023/07/22 03:10:14;;;;;;;;;;;11.40;99.90;;;;;;5053554;28;20782;-73
2023/07/22 03:12:40;;;;;;;6.47;3.10;;;11.40;99.90;;;;;;5053118;28;20376;-73
2023/07/22 03:15:08;;;;;;;5.85;3.17;;;11.40;99.90;;;;;;5053538;28;20041;-74
2023/07/22 03:17:36;;;;;;;5.82;2.75;;;11.40;99.90;;;;;;5052097;28;20136;-73
2023/07/22 03:20:08;;;;;;;6.97;3.20;;;11.50;99.90;;;;;;5055834;28;20095;-73
2023/07/22 03:22:34;;;;;;;6.20;2.90;;;11.50;99.90;;;;;;5033810;28;20037;-73
2023/07/22 03:25:00;;;;;;;6.05;2.97;;;11.50;99.90;;;;;;5033932;28;20057;-73
2023/07/22 03:27:27;;;;;;;6.95;3.40;;;11.60;99.90;;;;;;5033986;28;20103;-74
2023/07/22 03:29:52;;;;;;;6.10;2.90;;;11.60;99.90;;;;;;5031664;28;20049;-74
2023/07/22 03:32:18;;;;;;;;;;;11.60;99.90;;;;;;5033231;28;20050;-74
2023/07/22 03:34:44;;;;;;;5.88;3.47;;;11.70;99.90;;;;;;5038572;28;20403;-73
2023/07/22 03:37:10;;;;;;;6.07;2.83;;;11.60;99.90;;;;;;5053170;28;20393;-74
2023/07/22 03:39:38;;;;;;;5.63;3.00;;;11.60;99.90;;;;;;5053437;28;20080;-74
2023/07/22 03:42:07;;;;;;;5.38;3.30;;;11.70;99.90;;;;;;5053337;28;20138;-73
2023/07/22 03:44:33;;;;;;;5.47;3.35;;;11.70;99.90;;;;;;5051344;28;20053;-74
2023/07/22 03:47:20;;;;;;;6.15;3.40;;;11.80;99.90;;;;;;5052229;28;20049;-74
2023/07/22 03:49:46;;;;;;;;;;;11.80;99.90;;;;;;5042310;28;20088;-74
2023/07/22 03:52:14;;;;;;;7.93;3.63;;;11.80;99.90;;;;;;5053874;28;19917;-73
2023/07/22 03:54:45;;;;;;;6.72;3.22;;;11.80;99.90;;;;;;5051681;28;20056;-74
2023/07/22 03:57:14;;;;;;;7.70;3.58;;;11.80;99.90;;;;;;5052679;28;20049;-73
2023/07/22 03:59:40;;;;;;;7.50;3.80;;;11.90;99.90;;;;;;5053179;28;20037;-74
2023/07/22 04:02:06;;;;;;;7.60;3.80;;;11.90;99.90;;;;;;5052211;28;20074;-73
2023/07/22 04:04:32;;;;;;;;;;;12.00;99.90;;;;;;5051510;28;20472;-74
2023/07/22 04:06:58;;;;;;;9.68;4.18;;;12.00;99.90;;;;;;5053217;28;19964;-74
2023/07/22 04:09:23;;;;;;;;;;;12.10;99.90;;;;;;5052906;28;20152;-74
2023/07/22 04:11:49;;;;;;;9.48;4.65;;;12.20;99.90;;;;;;5052416;28;19935;-74
2023/07/22 04:14:15;;;;;;;9.50;4.75;;;12.20;99.90;;;;;;5053900;28;20048;-74
2023/07/22 04:16:41;;;;;;;11.00;4.78;;;12.30;99.90;;;;;;5054545;28;20128;-73
2023/07/22 04:19:08;;;;;;;8.63;4.95;;;12.30;99.90;;;;;;5053111;28;20125;-73
2023/07/22 04:21:34;;;;;;;12.93;5.35;;;12.30;99.90;;;;;;5053524;28;20048;-73
2023/07/22 04:24:06;;;;;;;12.35;5.65;;;12.40;99.90;;;;;;5056438;28;20044;-74
2023/07/22 04:26:35;;;;;;;11.00;5.60;;;12.30;99.90;;;;;;5056281;28;20056;-73
2023/07/22 04:29:00;;;;;;;12.52;5.75;;;12.50;99.90;;;;;;5056281;28;20056;-73
2023/07/22 04:31:26;;;;;;;11.05;5.63;;;12.50;99.90;;;;;;5058313;28;20425;-73
2023/07/22 04:33:55;;;;;;;10.43;5.68;;;12.50;99.90;;;;;;5057006;28;20045;-74
2023/07/22 04:36:21;;;;;;;15.27;6.30;;;12.50;99.90;;;;;;5056949;28;20083;-74
2023/07/22 04:38:50;;;;;;;10.90;6.43;;;12.60;99.90;;;;;;5057918;28;20040;-73
2023/07/22 04:41:16;;;;;;;11.05;5.97;;;12.60;99.90;;;;;;5057118;28;20061;-74
2023/07/22 04:43:41;;;;;;;11.07;6.25;;;12.70;99.90;;;;;;5054937;28;20053;-75
2023/07/22 04:46:08;;;;;;;11.57;6.47;;;12.70;99.90;;;;;;5050779;28;20041;-74
2023/07/22 04:48:39;;;;;;;12.95;6.60;;;12.70;99.90;;;;;;5050207;28;20061;-74
2023/07/22 04:51:05;;;;;;;14.48;6.75;;;12.70;99.90;;;;;;5033263;28;20041;-74
2023/07/22 04:53:31;;;;;;;11.48;6.43;;;12.70;99.90;;;;;;5032658;28;20047;-74
2023/07/22 04:55:57;;;;;;;12.43;6.50;;;12.70;99.90;;;;;;5033070;28;20099;-74
2023/07/22 04:58:26;;;;;;;11.07;6.07;;;12.80;99.90;;;;;;5031642;28;20050;-74
2023/07/22 05:00:52;;;;;;;12.95;5.95;;;12.90;99.90;;;;;;5048695;28;20442;-74
2023/07/22 05:03:20;;;;;;;14.10;6.68;;;12.90;99.90;;;;;;5051280;28;20086;-73
2023/07/22 05:05:58;;;;;;;11.40;6.38;;;13.00;99.90;;;;;;5052589;28;20041;-75
2023/07/22 05:08:24;;;;;;;11.98;6.25;;;13.00;99.90;;;;;;5051891;28;20041;-74
2023/07/22 05:10:50;;;;;;;11.05;6.53;;;13.10;99.90;;;;;;5050390;28;20052;-73
2023/07/22 05:13:18;;;;;;;13.45;6.60;;;13.20;99.90;;;;;;5051131;28;20049;-74
2023/07/22 05:15:44;;;;;;;11.18;6.55;;;13.20;99.90;;;;;;5051229;28;20056;-74
2023/07/22 05:18:10;;;;;;;12.35;6.38;;;13.30;99.90;;;;;;5050061;28;20041;-73
2023/07/22 05:20:38;;;;;;;11.82;6.35;;;13.30;99.90;;;;;;5051794;28;20434;-74
2023/07/22 05:23:07;;;;;;;13.20;6.65;;;13.40;99.90;;;;;;5050836;28;20045;-74
2023/07/22 05:25:33;;;;;;;13.75;6.43;;;13.50;99.90;;;;;;5050764;28;20045;-74
2023/07/22 05:27:59;;;;;;;11.88;6.43;;;13.50;99.90;;;;;;5051475;28;20045;-74
2023/07/22 05:30:24;;;;;;;10.25;5.97;;;13.60;99.90;;;;;;5050413;28;20045;-74
2023/07/22 05:32:53;;;;;;;11.65;6.18;;;13.70;99.90;;;;;;5051845;28;20040;-73
2023/07/22 05:35:19;;;;;;;12.77;6.03;;;13.80;99.90;;;;;;5052003;28;20460;-74
2023/07/22 05:37:45;;;;;;;11.20;6.03;;;13.90;99.90;;;;;;5052156;28;20448;-74
2023/07/22 05:40:13;;;;;;;11.02;6.10;;;14.00;99.90;;;;;;5054816;28;20132;-74
2023/07/22 05:42:41;;;;;;;10.10;6.53;;;14.10;99.90;;;;;;5054505;28;20103;-74
2023/07/22 05:45:07;;;;;;;10.68;6.00;;;14.20;99.90;;;;;;5054638;28;20049;-74
2023/07/22 05:47:33;;;;;;;11.00;6.20;;;14.30;99.90;;;;;;5054051;28;20083;-74
2023/07/22 05:49:58;;;;;;;11.05;5.82;;;14.40;99.90;;;;;;5055222;28;20404;-73
2023/07/22 05:52:24;;;;;;;10.25;5.88;;;14.50;99.90;;;;;;5054580;28;20048;-74
2023/07/22 05:54:50;;;;;;;10.52;6.30;;;14.50;99.90;;;;;;5055364;28;20079;-73
2023/07/22 05:57:15;;;;;;;9.95;5.55;;;14.60;99.90;;;;;;5053377;28;20442;-74
2023/07/22 05:59:41;;;;;;;11.20;5.68;;;14.70;99.90;;;;;;5054837;28;20052;-74
2023/07/22 06:02:10;;;;;;;11.77;6.00;;;14.70;99.90;;;;;;5054559;28;20057;-74
2023/07/22 06:04:36;;;;;;;10.50;5.50;;;14.80;99.90;;;;;;5054359;28;20062;-74
2023/07/22 06:07:02;;;;;;;10.10;5.82;;;14.80;99.90;;;;;;5055459;28;20041;-74
2023/07/22 06:09:30;;;;;;;10.02;5.78;;;14.90;99.90;;;;;;5054562;28;20045;-74
2023/07/22 06:11:56;;;;;;;11.63;5.90;;;14.90;99.90;;;;;;5054367;28;20033;-74
2023/07/22 06:14:22;;;;;;;11.25;5.70;;;15.00;99.90;;;;;;5055142;28;20038;-74
2023/07/22 06:16:47;;;;;;;11.60;6.07;;;15.10;99.90;;;;;;5053632;28;20052;-74
2023/07/22 06:19:13;;;;;;;10.95;6.10;;;15.10;99.90;;;;;;5053453;28;20049;-73
2023/07/22 06:21:39;;;;;;;12.38;6.35;;;15.20;99.90;;;;;;5055096;28;20052;-74
2023/07/22 06:24:06;;;;;;;12.43;6.22;;;15.30;99.90;;;;;;5052859;28;20072;-74
2023/07/22 06:26:31;;;;;;;12.80;7.43;;;15.30;99.90;;;;;;5055005;28;20075;-73
2023/07/22 06:28:57;;;;;;;14.50;7.13;;;15.30;99.90;;;;;;5054999;28;20052;-74
2023/07/22 06:31:23;;;;;;;12.90;7.57;;;15.40;99.90;;;;;;5053349;28;20082;-74
2023/07/22 06:33:48;;;;;;;13.45;7.20;;;15.50;99.90;;;;;;5054456;28;20554;-74
2023/07/22 06:36:16;;;;;;;13.32;7.85;;;15.60;99.90;;;;;;5055308;28;20037;-74
2023/07/22 06:38:42;;;;;;;13.95;7.22;;;15.70;99.90;;;;;;5054108;28;20135;-74
2023/07/22 06:41:07;;;;;;;12.10;7.45;;;15.80;99.90;;;;;;5054453;28;20053;-74
2023/07/22 06:43:33;;;;;;;13.45;7.30;;;15.90;99.90;;;;;;5054350;28;20411;-74
2023/07/22 06:45:59;;;;;;;13.13;7.38;;;16.50;99.90;;;;;;5052609;28;20041;-74
2023/07/22 06:48:25;;;;;;;13.85;7.70;;;16.00;99.90;;;;;;5054630;28;20504;-74
2023/07/22 06:50:51;;;;;;;14.30;7.35;;;16.00;99.90;;;;;;5052827;28;20049;-73
2023/07/22 06:53:17;;;;;;;12.32;6.80;;;16.00;99.90;;;;;;5053969;28;20048;-73
2023/07/22 06:55:54;;;;;;;13.00;7.47;;;16.00;99.90;;;;;;5052208;28;20072;-73
2023/07/22 06:58:22;;;;;;;13.32;7.38;;;16.20;99.90;;;;;;5054111;28;20044;-73
2023/07/22 07:00:48;;;;;;;13.35;7.38;;;16.30;99.90;;;;;;5052414;28;20045;-72
2023/07/22 07:03:13;;;;;;;13.30;7.28;;;16.40;99.90;;;;;;5046742;28;20044;-73
2023/07/22 07:05:41;;;;;;;12.70;6.97;;;16.50;99.90;;;;;;5048020;28;20048;-73
2023/07/22 07:08:10;;;;;;;14.02;7.25;;;16.40;99.90;;;;;;5053242;28;20060;-73
2023/07/22 07:10:39;;;;;;;11.40;7.03;;;16.40;99.90;;;;;;5040541;28;20042;-74
2023/07/22 07:13:05;;;;;;;10.93;6.45;;;16.40;99.90;;;;;;5032988;28;20046;-73
2023/07/22 07:15:31;;;;;;;12.05;6.72;;;16.30;99.90;;;;;;5045419;28;20045;-74
2023/07/22 07:17:57;;;;;;;13.88;7.20;;;16.20;99.90;;;;;;5043578;28;20392;-74
2023/07/22 07:20:23;;;;;;;12.40;6.13;;;16.20;99.90;;;;;;5047193;28;20095;-74
2023/07/22 07:22:48;;;;;;;13.10;7.20;;;16.20;99.90;;;;;;5053691;28;20045;-74
2023/07/22 07:25:15;;;;;;;10.88;6.70;;;16.20;99.90;;;;;;5053460;28;20039;-73
2023/07/22 07:27:43;;;;;;;12.18;6.80;;;16.20;99.90;;;;;;5052980;28;20056;-74
2023/07/22 07:30:09;;;;;;;15.07;6.88;;;16.20;99.90;;;;;;5053870;28;20041;-73
2023/07/22 07:32:36;;;;;;;14.23;7.15;;;16.20;99.90;;;;;;5051451;28;21588;-72
2023/07/22 07:35:03;;;;;;;11.82;7.03;;;16.40;99.90;;;;;;5052970;28;20041;-72
2023/07/22 07:37:31;;;;;;;11.38;6.45;;;16.60;99.90;;;;;;5053755;28;20418;-72
2023/07/22 07:40:00;;;;;;;13.15;6.88;;;16.80;99.90;;;;;;5051487;28;20049;-72
2023/07/22 07:42:27;;;;;;;11.18;6.90;;;17.20;99.90;;;;;;5046563;28;20054;-72
2023/07/22 07:44:53;;;;;;;12.15;7.30;;;17.60;99.90;;;;;;5032231;28;20042;-72
2023/07/22 07:47:19;;;;;;;12.43;6.88;;;18.00;99.90;;;;;;5045865;28;20120;-73
2023/07/22 07:49:45;;;;;;;12.23;6.70;;;18.30;99.90;;;;;;5042620;28;20034;-73
2023/07/22 07:52:14;;;;;;;10.38;6.07;;;18.50;99.90;;;;;;5033712;28;20052;-73
2023/07/22 07:54:40;;;;;;;9.93;6.15;;;18.60;99.90;;;;;;5051196;28;20045;-74
2023/07/22 07:57:06;;;;;;;11.27;6.53;;;18.60;99.90;;;;;;5051652;28;20481;-74
2023/07/22 07:59:31;;;;;;;9.07;5.82;;;18.60;99.90;;;;;;5051820;28;20128;-75
2023/07/22 08:01:57;;;;;;;10.27;5.93;;;18.70;99.90;;;;;;5052626;28;20144;-74
2023/07/22 08:04:26;;;;;;;11.85;5.97;;;18.70;99.90;;;;;;5051872;28;20037;-76
2023/07/22 08:06:52;;;;;;;9.23;5.50;;;18.50;99.90;;;;;;5051805;28;20177;-74
2023/07/22 08:09:19;;;;;;;10.23;5.47;;;18.40;99.90;;;;;;5053347;28;20472;-74
2023/07/22 08:11:45;;;;;;;9.50;5.30;;;18.20;99.90;;;;;;5052134;28;20040;-74
2023/07/22 08:14:11;;;;;;;10.15;5.78;;;18.00;99.90;;;;;;5052789;28;20056;-75
2023/07/22 08:16:40;;;;;;;9.13;5.25;;;17.80;99.90;;;;;;5051811;28;20045;-71
2023/07/22 08:19:05;;;;;;;8.98;4.93;;;17.60;99.90;;;;;;5053046;28;20045;-74
2023/07/22 08:21:31;;;;;;;7.85;4.10;;;17.50;99.90;;;;;;5052836;28;20052;-73
2023/07/22 08:23:57;;;;;;;6.65;4.07;;;17.40;99.90;;;;;;5052071;28;20094;-74
2023/07/22 08:26:23;;;;;;;11.10;4.63;;;17.40;99.90;;;;;;5051596;28;20049;-74
2023/07/22 08:28:49;;;;;;;6.10;4.10;;;17.30;99.90;;;;;;5051763;28;20049;-74
2023/07/22 08:31:18;;;;;;;6.05;3.67;;;17.20;99.90;;;;;;5051663;28;20043;-74
2023/07/22 08:33:44;;;;;;;5.75;3.10;;;17.20;99.90;;;;;;5045417;28;20124;-75
2023/07/22 08:36:10;;;;;;;7.28;3.10;;;17.00;99.90;;;;;;5045865;28;20080;-72
2023/07/22 08:38:36;;;;;;;5.55;3.22;;;16.90;99.90;;;;;;5039054;28;20060;-74
2023/07/22 08:41:01;;;;;;;6.28;3.47;;;16.60;99.90;;;;;;5042014;28;20065;-73
2023/07/22 08:43:28;;;;;;;6.22;3.78;;;16.60;99.90;;;;;;5039339;28;20111;-73
2023/07/22 08:46:00;;;;;;;8.60;3.60;;;16.40;99.90;;;;;;5046175;28;20052;-74
2023/07/22 08:48:29;;;;;;;6.10;3.20;;;16.30;99.90;;;;;;5044012;28;20045;-76
2023/07/22 08:50:59;;;;;;;5.82;3.08;;;16.10;99.90;;;;;;5040279;28;20397;-75
2023/07/22 08:53:25;;;;;;;8.38;3.35;;;15.90;99.90;;;;;;5043196;28;20171;-75
2023/07/22 08:55:51;;;;;;;6.03;3.25;;;15.80;99.90;;;;;;5047566;28;20108;-79
2023/07/22 08:58:17;;;;;;;4.97;3.10;;;15.80;99.90;;;;;;5052802;28;20134;-74
2023/07/22 09:00:48;;;;;;;5.50;3.17;;;15.80;99.90;;;;;;5049262;28;20059;-74
2023/07/22 09:03:14;;;;;;;5.72;3.47;;;14.70;99.90;;;;;;5052595;28;20362;-75
2023/07/22 09:05:42;;;;;;;6.43;3.70;;;16.00;99.90;;;;;;5050707;28;20126;-75
2023/07/22 09:08:08;;;;;;;5.22;3.08;;;16.10;99.90;;;;;;5050498;28;20135;-75
2023/07/22 09:10:34;;;;;;;4.93;2.97;;;16.10;99.90;;;;;;5052128;28;20051;-75
2023/07/22 09:13:00;;;;;;;5.60;3.33;;;16.60;99.90;;;;;;5051436;28;20450;-75
2023/07/22 09:15:27;;;;;;;10.73;3.35;;;16.20;99.90;;;;;;5053646;28;20051;-75
2023/07/22 09:17:56;;;;;;;4.75;3.15;;;16.20;99.90;;;;;;5052965;28;20393;-75
2023/07/22 09:20:23;;;;;;;5.72;2.88;;;16.20;99.90;;;;;;5052184;28;20505;-75
2023/07/22 09:22:52;;;;;;;5.45;3.08;;;16.30;99.90;;;;;;5054290;28;20041;-75
2023/07/22 09:25:22;;;;;;;4.20;2.72;;;16.30;99.90;;;;;;5054220;28;20053;-74
2023/07/22 09:27:54;;;;;;;5.00;3.30;;;16.20;99.90;;;;;;5051675;28;20048;-75
2023/07/22 09:30:28;;;;;;;4.90;2.53;;;16.20;99.90;;;;;;5054195;28;20052;-75
2023/07/22 09:32:59;;;;;;;5.20;2.90;;;16.00;99.90;;;;;;5054677;28;20063;-74
2023/07/22 09:35:30;;;;;;;5.35;2.80;;;16.00;99.90;;;;;;5054001;28;20573;-75
2023/07/22 09:37:56;;;;;;;6.78;3.42;;;16.00;99.90;;;;;;5054517;28;20542;-75
2023/07/22 09:40:28;;;;;;;4.65;2.70;;;16.00;99.90;;;;;;5055025;28;20131;-74
2023/07/22 09:43:02;;;;;;;5.50;3.35;;;15.90;99.90;;;;;;5053749;28;20041;-75
2023/07/22 09:45:30;;;;;;;5.78;3.15;;;16.00;99.90;;;;;;5056430;28;20092;-75
2023/07/22 09:47:57;;;;;;;7.93;3.63;;;16.00;99.90;;;;;;5055491;28;20393;-75
2023/07/22 09:50:25;;;;;;;5.78;3.60;;;16.10;99.90;;;;;;5055882;28;20045;-75
2023/07/22 09:52:59;;;;;;;6.97;4.00;;;16.10;99.90;;;;;;5054962;28;20563;-74
2023/07/22 09:55:29;;;;;;;6.93;3.88;;;16.10;99.90;;;;;;5051098;28;20120;-74
2023/07/22 09:58:02;;;;;;;5.57;3.55;;;16.10;99.90;;;;;;5055465;28;20045;-75
2023/07/22 10:00:33;;;;;;;8.07;4.10;;;16.20;99.90;;;;;;5053683;28;20060;-80
2023/07/22 10:03:01;;;;;;;7.63;3.80;;;16.30;99.90;;;;;;5055197;28;20037;-74
2023/07/22 10:05:33;;;;;;;7.25;4.20;;;16.40;99.90;;;;;;5054084;28;20053;-75
2023/07/22 10:07:59;;;;;;;6.30;3.85;;;16.60;99.90;;;;;;5048321;28;20132;-74
2023/07/22 10:10:33;;;;;;;6.10;3.58;;;16.60;99.90;;;;;;5048501;28;20139;-78
2023/07/22 10:12:59;;;;;;;6.70;3.75;;;16.70;99.90;;;;;;5053525;28;20045;-74
2023/07/22 10:15:28;;;;;;;7.00;3.70;;;16.70;99.90;;;;;;5050976;28;20049;-73
2023/07/22 10:17:55;;;;;;;6.80;4.18;;;16.70;99.90;;;;;;5040972;28;20058;-75
2023/07/22 10:20:22;;;;;;;6.43;3.70;;;16.70;99.90;;;;;;5053683;28;20135;-73
2023/07/22 10:22:47;;;;;;;7.07;3.72;;;16.80;99.90;;;;;;5046192;28;20049;-75
2023/07/22 10:25:20;;;;;;;8.13;4.10;;;16.70;99.90;;;;;;5046564;28;20033;-76
2023/07/22 10:27:48;;;;;;;7.78;4.63;;;16.70;99.90;;;;;;5048157;28;20124;-74
2023/07/22 10:30:15;;;;;;;7.95;4.25;;;16.70;99.90;;;;;;5043971;28;20048;-73
2023/07/22 10:32:47;;;;;;;7.50;4.55;;;16.70;99.90;;;;;;5045317;28;20049;-74
2023/07/22 10:35:37;;;;;;;8.35;4.30;;;16.80;99.90;;;;;;5047065;28;20124;-72
2023/07/22 10:38:09;;;;;;;8.52;4.57;;;16.60;99.90;;;;;;5030048;28;20087;-71
2023/07/22 10:40:53;;;;;;;6.97;3.33;;;16.60;99.90;;;;;;5045264;28;20091;-73
2023/07/22 10:43:33;;;;;;;5.60;3.40;;;16.50;99.90;;;;;;5051325;28;20037;-74
2023/07/22 10:46:08;;;;;;;6.30;3.42;;;16.40;99.90;;;;;;5049799;28;20040;-75
2023/07/22 10:48:37;;;;;;;6.38;3.83;;;16.40;99.90;;;;;;5045857;28;20048;-72
2023/07/22 10:51:21;;;;;;;6.60;3.80;;;16.30;99.90;;;;;;5043353;28;20045;-74
2023/07/22 10:53:48;;;;;;;6.00;3.90;;;16.40;99.90;;;;;;5051323;28;20045;-76
2023/07/22 10:56:20;;;;;;;8.00;4.70;;;16.60;99.90;;;;;;5051268;28;20045;-77
2023/07/22 10:58:46;;;;;;;9.52;4.78;;;16.60;99.90;;;;;;5047697;28;20037;-75
2023/07/22 11:01:30;;;;;;;8.18;4.90;;;16.70;99.90;;;;;;5043917;28;20094;-75
2023/07/22 11:04:06;;;;;;;6.53;4.20;;;16.50;99.90;;;;;;5046580;28;20088;-72
2023/07/22 11:06:33;;;;;;;7.25;5.43;;;16.50;99.90;;;;;;5044910;28;20086;-74
2023/07/22 11:09:01;;;;;;;7.20;4.90;;;16.40;99.90;;;;;;5046854;28;20059;-79
2023/07/22 11:11:43;;;;;;;7.47;5.28;;;16.30;99.90;;;;;;5042113;28;20049;-77
2023/07/22 11:14:21;;;;;;;9.75;5.32;;;16.10;99.90;;;;;;5052395;28;20037;-75
2023/07/22 11:16:47;;;;;;;9.93;5.65;;;16.10;99.90;;;;;;5040508;28;20377;-73
2023/07/22 11:19:15;;;;;;;8.10;5.32;;;16.10;99.90;;;;;;5034240;28;20052;-76
2023/07/22 11:21:45;;;;;;;8.52;5.70;;;16.30;99.90;;;;;;5034358;28;20045;-81
2023/07/22 11:24:20;;;;;;;8.50;5.55;;;16.40;99.90;;;;;;5052510;28;20084;-79
2023/07/22 11:26:47;;;;;;;9.77;6.07;;;16.30;99.90;;;;;;5052007;28;20056;-75
2023/07/22 11:29:16;;;;;;;8.82;6.78;;;16.40;99.90;;;;;;5052863;28;20049;-75
2023/07/22 11:31:47;;;;;;;8.82;6.45;;;16.50;99.90;;;;;;5051885;28;20529;-74
2023/07/22 11:34:18;;;;;;;8.02;6.28;;;16.60;99.90;;;;;;5033498;28;20095;-77
2023/07/22 11:36:44;;;;;;;9.98;7.22;;;16.80;99.90;;;;;;5042322;28;20041;-76
2023/07/22 11:39:13;;;;;;;9.68;6.53;;;16.80;99.90;;;;;;5052530;28;20053;-75
2023/07/22 11:41:42;;;;;;;9.75;6.45;;;17.00;99.90;;;;;;5051798;28;20555;-78
2023/07/22 11:44:12;;;;;;;10.52;6.75;;;17.10;99.90;;;;;;5039955;28;20060;-76
2023/07/22 11:46:59;;;;;;;9.98;7.03;;;17.10;99.90;;;;;;5035707;28;20049;-77
2023/07/22 11:49:31;;;;;;;13.02;7.03;;;17.20;99.90;;;;;;5052913;28;20056;-74
2023/07/22 11:52:03;;;;;;;8.85;6.93;;;17.30;99.90;;;;;;5053219;28;20056;-74
2023/07/22 11:54:30;;;;;;;10.43;6.93;;;17.40;99.90;;;;;;5052721;28;20041;-72
2023/07/22 11:56:56;;;;;;;11.15;6.80;;;17.40;99.90;;;;;;5037184;28;20045;-76
2023/07/22 11:59:40;;;;;;;10.05;6.57;;;17.60;99.90;;;;;;5034428;28;20045;-75
2023/07/22 12:02:06;;;;;;;7.97;5.72;;;17.80;99.90;;;;;;5052862;28;20078;-76
2023/07/22 12:04:34;;;;;;;9.13;6.43;;;17.90;99.90;;;;;;5053253;28;20127;-77
2023/07/22 12:07:00;;;;;;;8.30;6.10;;;18.00;99.90;;;;;;5052269;28;20072;-80
2023/07/22 12:09:26;;;;;;;8.52;6.00;;;18.30;99.90;;;;;;5051372;28;20124;-75
2023/07/22 12:12:00;;;;;;;8.95;5.90;;;18.30;99.90;;;;;;5051858;28;20049;-79
2023/07/22 12:14:37;;;;;;;8.68;6.22;;;18.40;99.90;;;;;;5053838;28;20056;-81
2023/07/22 12:17:07;;;;;;;10.63;5.50;;;18.20;99.90;;;;;;5052822;28;20049;-76
2023/07/22 12:19:34;;;;;;;9.13;5.80;;;18.10;99.90;;;;;;5051735;28;20052;-76
2023/07/22 12:22:00;;;;;;;8.85;5.05;;;17.90;99.90;;;;;;5053048;28;20377;-75
2023/07/22 12:24:33;;;;;;;9.45;5.10;;;17.80;99.90;;;;;;5050500;28;20052;-76
2023/07/22 12:26:58;;;;;;;7.55;4.65;;;17.60;99.90;;;;;;5052488;28;20047;-75
2023/07/22 12:29:25;;;;;;;9.27;5.47;;;17.40;99.90;;;;;;5052847;28;20048;-75
2023/07/22 12:31:51;;;;;;;8.05;4.10;;;17.40;99.90;;;;;;5050752;28;20047;-75
2023/07/22 12:34:17;;;;;;;6.18;3.05;;;17.20;99.90;;;;;;5051630;28;20128;-75
2023/07/22 12:36:46;;;;;;;5.47;2.90;;;17.00;99.90;;;;;;5051067;28;20124;-75
2023/07/22 12:39:12;;;;;;;5.07;2.42;;;17.00;99.90;;;;;;5050823;28;20040;-75
2023/07/22 12:41:38;;;;;;;4.95;2.80;;;17.00;99.90;;;;;;5049854;28;20455;-77
2023/07/22 12:44:04;;;;;;;6.43;2.97;;;17.00;99.90;;;;;;5050059;28;20447;-78
2023/07/22 12:46:29;;;;;;;5.85;3.25;;;17.10;99.90;;;;;;5049415;28;20132;-75
2023/07/22 12:48:55;;;;;;;7.13;2.97;;;17.00;99.90;;;;;;5049431;28;20510;-74